createdAt,value
2023-04-16T00:01:29.551Z,101675.69
2023-04-16T00:03:58.257Z,101675.22
2023-04-16T00:06:28.454Z,101674.40
2023-04-16T00:08:56.931Z,101679.14
2023-04-16T00:11:25.623Z,101680.61
2023-04-16T00:13:54.203Z,101676.49
2023-04-16T00:16:22.750Z,101678.10
2023-04-16T00:18:51.369Z,101679.38
2023-04-16T00:21:19.680Z,101687.76
2023-04-16T00:23:48.031Z,101686.56
2023-04-16T00:26:16.399Z,101683.86
2023-04-16T00:28:45.599Z,101681.67
2023-04-16T00:31:14.318Z,101687.04
2023-04-16T00:33:42.872Z,101682.70
2023-04-16T00:36:11.959Z,101683.63
2023-04-16T00:38:40.644Z,101687.67
2023-04-16T00:41:08.816Z,101686.81
2023-04-16T00:43:37.704Z,101683.68
2023-04-16T00:46:07.499Z,101686.67
2023-04-16T00:48:37.024Z,101688.06
2023-04-16T00:51:06.326Z,101691.05
2023-04-16T00:53:35.833Z,101689.52
2023-04-16T00:56:05.953Z,101687.27
2023-04-16T00:58:35.571Z,101690.77
2023-04-16T01:01:04.074Z,101695.30
2023-04-16T01:03:41.155Z,101690.75
2023-04-16T01:06:10.210Z,101687.80
2023-04-16T01:08:38.797Z,101687.65
2023-04-16T01:11:07.277Z,101686.27
2023-04-16T01:13:39.729Z,101682.61
2023-04-16T01:16:09.368Z,101677.69
2023-04-16T01:18:38.148Z,101678.54
2023-04-16T01:21:06.937Z,101673.81
2023-04-16T01:23:35.833Z,101675.74
2023-04-16T01:26:04.103Z,101675.80
2023-04-16T01:28:32.994Z,101684.42
2023-04-16T01:31:01.749Z,101687.21
2023-04-16T01:33:44.185Z,101676.04
2023-04-16T01:36:13.587Z,101679.17
2023-04-16T01:38:42.272Z,101673.75
2023-04-16T01:41:10.644Z,101670.61
2023-04-16T01:43:40.284Z,101676.59
2023-04-16T01:46:15.860Z,101672.81
2023-04-16T01:48:44.592Z,101670.72
2023-04-16T01:51:13.483Z,101673.55
2023-04-16T01:53:41.778Z,101675.30
2023-04-16T01:56:11.474Z,101672.48
2023-04-16T01:58:43.019Z,101676.46
2023-04-16T02:01:11.831Z,101668.23
2023-04-16T02:03:40.815Z,101670.54
2023-04-16T02:06:09.600Z,101664.96
2023-04-16T02:08:38.786Z,101661.02
2023-04-16T02:11:07.374Z,101668.55
2023-04-16T02:13:37.079Z,101667.20
2023-04-16T02:16:06.529Z,101667.96
2023-04-16T02:18:53.391Z,101672.58
2023-04-16T02:21:23.222Z,101670.02
2023-04-16T02:23:52.293Z,101674.60
2023-04-16T02:26:26.555Z,101671.50
2023-04-16T02:28:55.427Z,101674.48
2023-04-16T02:31:26.645Z,101668.23
2023-04-16T02:33:55.124Z,101671.73
2023-04-16T02:36:23.405Z,101672.45
2023-04-16T02:38:51.779Z,101669.18
2023-04-16T02:41:20.668Z,101672.20
2023-04-16T02:43:49.392Z,101672.92
2023-04-16T02:46:18.071Z,101678.16
2023-04-16T02:48:46.419Z,101681.87
2023-04-16T02:51:15.306Z,101682.06
2023-04-16T02:53:46.274Z,101682.95
2023-04-16T02:56:15.036Z,101685.94
2023-04-16T02:58:43.724Z,101687.17
2023-04-16T03:01:12.864Z,101690.31
2023-04-16T03:03:41.813Z,101695.05
2023-04-16T03:06:10.490Z,101695.09
2023-04-16T03:08:39.482Z,101697.35
2023-04-16T03:11:07.907Z,101701.22
2023-04-16T03:13:36.445Z,101704.77
2023-04-16T03:16:05.189Z,101706.38
2023-04-16T03:18:33.508Z,101711.86
2023-04-16T03:21:02.098Z,101714.36
2023-04-16T03:23:32.412Z,101710.88
2023-04-16T03:26:00.799Z,101708.10
2023-04-16T03:28:30.514Z,101711.63
2023-04-16T03:30:59.942Z,101711.33
2023-04-16T03:33:28.836Z,101714.09
2023-04-16T03:35:58.612Z,101714.73
2023-04-16T03:38:28.933Z,101711.80
2023-04-16T03:40:58.537Z,101718.35
2023-04-16T03:43:27.328Z,101718.45
2023-04-16T03:45:55.929Z,101713.28
2023-04-16T03:48:25.823Z,101708.10
2023-04-16T03:50:54.303Z,101710.04
2023-04-16T03:53:23.819Z,101716.53
2023-04-16T03:55:52.699Z,101725.84
2023-04-16T03:58:22.135Z,101724.88
2023-04-16T04:00:56.043Z,101718.38
2023-04-16T04:03:26.592Z,101726.26
2023-04-16T04:05:55.744Z,101726.73
2023-04-16T04:08:27.594Z,101738.35
2023-04-16T04:10:56.183Z,101733.71
2023-04-16T04:13:25.080Z,101737.48
2023-04-16T04:15:54.103Z,101736.00
2023-04-16T04:18:22.847Z,101736.27
2023-04-16T04:20:51.838Z,101741.48
2023-04-16T04:23:21.963Z,101743.19
2023-04-16T04:25:51.188Z,101742.64
2023-04-16T04:28:19.534Z,101738.95
2023-04-16T04:30:48.012Z,101745.02
2023-04-16T04:33:17.724Z,101749.15
2023-04-16T04:35:46.723Z,101755.86
2023-04-16T04:38:20.030Z,101760.34
2023-04-16T04:40:49.331Z,101760.94
2023-04-16T04:43:17.994Z,101765.33
2023-04-16T04:45:46.817Z,101765.94
2023-04-16T04:48:16.390Z,101762.73
2023-04-16T04:50:45.180Z,101763.36
2023-04-16T04:53:15.168Z,101766.20
2023-04-16T04:55:44.285Z,101769.56
2023-04-16T04:58:12.666Z,101773.06
2023-04-16T05:00:42.994Z,101783.13
2023-04-16T05:03:13.205Z,101788.43
2023-04-16T05:05:41.999Z,101781.55
2023-04-16T05:08:10.793Z,101782.64
2023-04-16T05:10:39.066Z,101779.14
2023-04-16T05:13:07.753Z,101775.48
2023-04-16T05:15:36.698Z,101777.30
2023-04-16T05:18:04.963Z,101781.27
2023-04-16T05:20:33.500Z,101784.71
2023-04-16T05:23:02.091Z,101776.55
2023-04-16T05:25:31.295Z,101782.19
2023-04-16T05:27:59.779Z,101784.10
2023-04-16T05:30:28.032Z,101795.98
2023-04-16T05:32:56.776Z,101795.41
2023-04-16T05:35:25.199Z,101793.91
2023-04-16T05:37:54.035Z,101795.48
2023-04-16T05:40:22.775Z,101793.28
2023-04-16T05:42:51.459Z,101798.94
2023-04-16T05:45:20.358Z,101800.21
2023-04-16T05:47:48.992Z,101810.59
2023-04-16T05:50:17.616Z,101822.04
2023-04-16T05:52:46.512Z,101827.88
2023-04-16T05:55:14.681Z,101827.94
2023-04-16T05:57:43.071Z,101829.55
2023-04-16T06:00:11.901Z,101825.56
2023-04-16T06:02:43.249Z,101821.35
2023-04-16T06:05:11.879Z,101816.89
2023-04-16T06:07:40.461Z,101819.30
2023-04-16T06:10:09.358Z,101822.19
2023-04-16T06:12:37.747Z,101820.70
2023-04-16T06:15:06.945Z,101821.45
2023-04-16T06:17:35.646Z,101816.53
2023-04-16T06:20:05.169Z,101811.02
2023-04-16T06:22:34.417Z,101814.66
2023-04-16T06:25:03.034Z,101823.71
2023-04-16T06:27:31.836Z,101821.98
2023-04-16T06:30:01.189Z,101826.45
2023-04-16T06:32:30.304Z,101823.81
2023-04-16T06:34:59.583Z,101824.38
2023-04-16T06:37:27.963Z,101824.75
2023-04-16T06:39:56.443Z,101822.19
2023-04-16T06:42:25.238Z,101827.29
2023-04-16T06:44:53.723Z,101832.23
2023-04-16T06:47:22.551Z,101833.00
2023-04-16T06:49:51.182Z,101835.70
2023-04-16T06:52:19.459Z,101839.31
2023-04-16T06:54:48.666Z,101847.45
2023-04-16T06:57:16.960Z,101849.36
2023-04-16T06:59:45.828Z,101851.02
2023-04-16T07:02:14.356Z,101850.70
2023-04-16T07:04:43.199Z,101850.10
2023-04-16T07:07:11.780Z,101846.11
2023-04-16T07:09:40.265Z,101847.06
2023-04-16T07:12:08.736Z,101846.34
2023-04-16T07:14:37.728Z,101846.50
2023-04-16T07:17:06.523Z,101851.98
2023-04-16T07:19:35.452Z,101862.37
2023-04-16T07:22:04.303Z,101865.38
2023-04-16T07:24:32.988Z,101868.62
2023-04-16T07:27:01.741Z,101866.25
2023-04-16T07:29:30.559Z,101864.23
2023-04-16T07:31:59.325Z,101860.98
2023-04-16T07:34:27.930Z,101861.90
2023-04-16T07:36:56.616Z,101862.28
2023-04-16T07:39:25.606Z,101858.89
2023-04-16T07:41:53.999Z,101853.20
2023-04-16T07:44:22.782Z,101849.09
2023-04-16T07:46:51.329Z,101847.79
2023-04-16T07:49:20.246Z,101842.74
2023-04-16T07:55:10.874Z,101842.54
2023-04-16T07:57:39.148Z,101844.90
2023-04-16T08:00:08.656Z,101843.23
2023-04-16T08:02:44.070Z,101841.70
2023-04-16T08:05:13.431Z,101840.42
2023-04-16T08:07:42.493Z,101837.50
2023-04-16T08:10:11.384Z,101837.11
2023-04-16T08:12:39.956Z,101832.88
2023-04-16T08:15:09.461Z,101828.23
2023-04-16T08:17:39.107Z,101828.66
2023-04-16T08:20:07.968Z,101831.51
2023-04-16T08:22:37.054Z,101830.89
2023-04-16T08:25:06.167Z,101836.59
2023-04-16T08:27:34.742Z,101830.73
2023-04-16T08:30:04.130Z,101826.55
2023-04-16T08:32:32.905Z,101818.78
2023-04-16T08:35:01.405Z,101823.52
2023-04-16T08:37:29.946Z,101819.06
2023-04-16T08:39:58.289Z,101816.25
2023-04-16T08:42:59.920Z,101818.14
2023-04-16T08:45:28.611Z,101822.48
2023-04-16T08:47:56.951Z,101815.48
2023-04-16T08:50:26.393Z,101818.48
2023-04-16T08:53:04.742Z,101821.85
2023-04-16T08:55:38.397Z,101822.20
2023-04-16T08:58:24.409Z,101823.58
2023-04-16T09:00:52.978Z,101823.52
2023-04-16T09:03:22.210Z,101826.60
2023-04-16T09:05:50.752Z,101828.95
2023-04-16T09:08:19.242Z,101825.59
2023-04-16T09:10:47.635Z,101827.75
2023-04-16T09:13:18.138Z,101829.58
2023-04-16T09:15:46.616Z,101835.09
2023-04-16T09:18:14.895Z,101831.56
2023-04-16T09:20:43.578Z,101829.88
2023-04-16T09:23:14.526Z,101832.20
2023-04-16T09:25:42.904Z,101828.55
2023-04-16T09:28:11.382Z,101821.73
2023-04-16T09:30:40.090Z,101820.77
2023-04-16T09:33:22.962Z,101814.06
2023-04-16T09:35:54.637Z,101813.63
2023-04-16T09:38:26.751Z,101803.95
2023-04-16T09:41:10.660Z,101817.59
2023-04-16T09:43:39.335Z,101829.77
2023-04-16T09:46:08.588Z,101829.10
2023-04-16T09:48:37.219Z,101824.52
2023-04-16T09:51:06.515Z,101825.31
2023-04-16T09:53:35.433Z,101829.14
2023-04-16T09:56:06.443Z,101827.79
2023-04-16T09:58:41.788Z,101833.52
2023-04-16T10:01:13.572Z,101829.34
2023-04-16T10:03:42.269Z,101831.16
2023-04-16T10:06:22.640Z,101829.82
2023-04-16T10:08:54.205Z,101828.20
2023-04-16T10:11:22.524Z,101832.44
2023-04-16T10:13:51.321Z,101830.40
2023-04-16T10:16:19.859Z,101834.08
2023-04-16T10:18:48.475Z,101832.37
2023-04-16T10:21:16.954Z,101833.30
2023-04-16T10:23:46.683Z,101831.11
2023-04-16T10:26:14.940Z,101831.68
2023-04-16T10:28:45.674Z,101843.21
2023-04-16T10:31:14.309Z,101855.13
2023-04-16T10:33:43.356Z,101857.61
2023-04-16T10:36:13.152Z,101859.41
2023-04-16T10:38:45.535Z,101863.75
2023-04-16T10:41:14.319Z,101859.25
2023-04-16T10:43:47.089Z,101861.69
2023-04-16T10:46:21.763Z,101866.58
2023-04-16T10:48:52.988Z,101866.92
2023-04-16T10:51:32.772Z,101872.48
2023-04-16T10:54:05.405Z,101877.67
2023-04-16T10:56:34.286Z,101882.34
2023-04-16T10:59:09.226Z,101883.70
2023-04-16T11:01:45.055Z,101878.84
2023-04-16T11:04:25.792Z,101882.01
2023-04-16T11:07:17.148Z,101877.58
2023-04-16T11:09:54.748Z,101877.31
2023-04-16T11:12:27.940Z,101874.05
2023-04-16T11:15:01.949Z,101878.17
2023-04-16T11:17:40.164Z,101901.38
2023-04-16T11:20:25.658Z,101898.73
2023-04-16T11:22:56.374Z,101893.17
2023-04-16T11:25:34.271Z,101897.64
2023-04-16T11:28:02.855Z,101898.56
2023-04-16T11:30:34.251Z,101893.20
2023-04-16T11:33:06.389Z,101890.85
2023-04-16T11:35:36.421Z,101886.86
2023-04-16T11:38:06.639Z,101886.45
2023-04-16T11:40:36.254Z,101884.67
2023-04-16T11:43:13.108Z,101887.81
2023-04-16T11:46:02.675Z,101892.19
2023-04-16T11:48:51.325Z,101887.06
2023-04-16T11:51:19.999Z,101891.11
2023-04-16T11:53:53.327Z,101890.52
2023-04-16T11:56:39.915Z,101893.88
2023-04-16T11:59:13.484Z,101890.45
2023-04-16T12:01:45.724Z,101884.28
2023-04-16T12:04:16.443Z,101881.92
2023-04-16T12:07:10.788Z,101877.70
2023-04-16T12:09:42.952Z,101875.80
2023-04-16T12:12:32.134Z,101875.48
2023-04-16T12:15:04.413Z,101873.83
2023-04-16T12:17:34.077Z,101866.75
2023-04-16T12:20:13.228Z,101870.48
2023-04-16T12:22:47.958Z,101861.30
2023-04-16T12:25:17.560Z,101852.73
2023-04-16T12:27:47.385Z,101846.55
2023-04-16T12:30:16.260Z,101845.04
2023-04-16T12:32:47.675Z,101846.02
2023-04-16T12:35:33.706Z,101843.83
2023-04-16T12:38:03.823Z,101839.58
2023-04-16T12:40:32.920Z,101829.63
2023-04-16T12:43:01.201Z,101824.41
2023-04-16T12:48:54.273Z,101826.44
2023-04-16T12:51:23.173Z,101832.88
2023-04-16T12:53:51.553Z,101830.52
2023-04-16T12:56:20.636Z,101832.50
2023-04-16T12:58:52.017Z,101834.57
2023-04-16T13:01:20.628Z,101827.82
2023-04-16T13:03:49.737Z,101822.34
2023-04-16T13:06:18.244Z,101816.44
2023-04-16T13:08:46.724Z,101819.46
2023-04-16T13:11:15.929Z,101824.52
2023-04-16T13:13:44.513Z,101819.45
2023-04-16T13:16:13.551Z,101810.67
2023-04-16T13:18:44.131Z,101803.27
2023-04-16T13:21:12.611Z,101796.39
2023-04-16T13:23:41.092Z,101801.01
2023-04-16T13:26:09.467Z,101801.35
2023-04-16T13:28:38.160Z,101800.78
2023-04-16T13:31:06.768Z,101795.92
2023-04-16T13:33:35.220Z,101791.36
2023-04-16T13:36:03.926Z,101794.19
2023-04-16T13:38:32.589Z,101795.16
2023-04-16T13:41:01.385Z,101795.89
2023-04-16T13:43:29.651Z,101801.48
2023-04-16T13:45:58.644Z,101802.14
2023-04-16T13:48:27.035Z,101800.54
2023-04-16T13:50:56.284Z,101796.09
2023-04-16T13:53:24.700Z,101790.48
2023-04-16T13:55:52.975Z,101785.70
2023-04-16T13:58:21.564Z,101783.13
2023-04-16T14:00:49.864Z,101782.14
2023-04-16T14:03:18.869Z,101785.77
2023-04-16T14:05:47.615Z,101791.41
2023-04-16T14:08:17.229Z,101795.97
2023-04-16T14:10:45.600Z,101794.91
2023-04-16T14:13:13.976Z,101793.05
2023-04-16T14:15:42.558Z,101790.95
2023-04-16T14:18:11.451Z,101786.20
2023-04-16T14:20:40.650Z,101784.00
2023-04-16T14:23:08.828Z,101777.21
2023-04-16T14:25:38.799Z,101775.00
2023-04-16T14:28:07.317Z,101773.31
2023-04-16T14:30:36.002Z,101771.52
2023-04-16T14:33:06.707Z,101770.38
2023-04-16T14:35:35.018Z,101772.34
2023-04-16T14:38:03.414Z,101770.59
2023-04-16T14:40:32.104Z,101769.21
2023-04-16T14:43:00.767Z,101767.52
2023-04-16T14:45:31.104Z,101768.97
2023-04-16T14:47:59.412Z,101770.85
2023-04-16T14:50:27.954Z,101771.61
2023-04-16T14:52:56.434Z,101772.63
2023-04-16T14:55:25.004Z,101772.17
2023-04-16T14:57:53.486Z,101775.08
2023-04-16T15:00:21.966Z,101774.20
2023-04-16T15:02:50.589Z,101774.92
2023-04-16T15:05:19.061Z,101773.27
2023-04-16T15:07:47.920Z,101775.56
2023-04-16T15:10:16.710Z,101773.86
2023-04-16T15:12:46.417Z,101776.72
2023-04-16T15:15:14.913Z,101776.06
2023-04-16T15:17:44.158Z,101781.98
2023-04-16T15:20:13.071Z,101781.22
2023-04-16T15:22:41.777Z,101783.25
2023-04-16T15:25:10.255Z,101783.18
2023-04-16T15:27:39.353Z,101783.00
2023-04-16T15:30:08.956Z,101783.71
2023-04-16T15:32:37.509Z,101783.43
2023-04-16T15:35:07.238Z,101782.41
2023-04-16T15:37:36.754Z,101780.72
2023-04-16T15:40:08.000Z,101775.49
2023-04-16T15:42:36.993Z,101774.81
2023-04-16T15:45:06.515Z,101777.89
2023-04-16T15:47:37.204Z,101777.15
2023-04-16T15:50:07.042Z,101775.45
2023-04-16T15:52:36.658Z,101780.75
2023-04-16T15:55:05.534Z,101778.95
2023-04-16T15:57:34.637Z,101782.91
2023-04-16T16:00:07.432Z,101791.01
2023-04-16T16:02:38.682Z,101797.48
2023-04-16T16:05:09.546Z,101805.17
2023-04-16T16:07:39.005Z,101814.81
2023-04-16T16:10:08.507Z,101822.39
2023-04-16T16:12:37.935Z,101828.35
2023-04-16T16:15:07.227Z,101835.57
2023-04-16T16:17:36.112Z,101841.56
2023-04-16T16:20:06.856Z,101847.02
2023-04-16T16:22:38.360Z,101849.86
2023-04-16T16:25:07.313Z,101843.46
2023-04-16T16:27:36.624Z,101842.11
2023-04-16T16:30:07.429Z,101836.39
2023-04-16T16:32:36.120Z,101837.02
2023-04-16T16:35:05.192Z,101839.20
2023-04-16T16:37:33.772Z,101840.85
2023-04-16T16:40:02.373Z,101841.10
2023-04-16T16:42:31.974Z,101836.48
2023-04-16T16:45:00.348Z,101833.44
2023-04-16T16:47:29.180Z,101834.04
2023-04-16T16:49:57.607Z,101840.08
2023-04-16T16:52:26.391Z,101840.86
2023-04-16T16:54:56.872Z,101843.25
2023-04-16T16:57:25.919Z,101850.31
2023-04-16T16:59:56.857Z,101853.85
2023-04-16T17:02:25.755Z,101860.05
2023-04-16T17:04:54.226Z,101869.02
2023-04-16T17:07:22.707Z,101864.31
2023-04-16T17:09:51.392Z,101867.50
2023-04-16T17:12:19.974Z,101868.86
2023-04-16T17:14:50.710Z,101862.02
2023-04-16T17:17:19.342Z,101865.98
2023-04-16T17:19:47.877Z,101866.92
2023-04-16T17:22:16.589Z,101870.28
2023-04-16T17:24:45.260Z,101873.08
2023-04-16T17:27:13.531Z,101876.76
2023-04-16T17:29:42.106Z,101868.23
2023-04-16T17:32:10.887Z,101871.41
2023-04-16T17:34:41.728Z,101877.23
2023-04-16T17:37:10.722Z,101882.89
2023-04-16T17:39:38.927Z,101895.32
2023-04-16T17:42:07.592Z,101905.30
2023-04-16T17:44:35.962Z,101915.66
2023-04-16T17:47:05.255Z,101913.30
2023-04-16T17:49:33.858Z,101915.86
2023-04-16T17:52:02.115Z,101914.04
2023-04-16T17:54:30.695Z,101909.19
2023-04-16T17:56:59.280Z,101911.48
2023-04-16T17:59:27.658Z,101906.08
2023-04-16T18:01:56.979Z,101902.93
2023-04-16T18:04:25.759Z,101906.61
2023-04-16T18:06:54.225Z,101910.31
2023-04-16T18:09:23.161Z,101913.96
2023-04-16T18:11:51.810Z,101914.00
2023-04-16T18:14:21.815Z,101915.40
2023-04-16T18:16:50.096Z,101914.58
2023-04-16T18:19:18.474Z,101914.10
2023-04-16T18:21:47.056Z,101914.16
2023-04-16T18:24:16.270Z,101916.45
2023-04-16T18:26:46.668Z,101917.50
2023-04-16T18:29:17.158Z,101920.48
2023-04-16T18:31:47.396Z,101922.44
2023-04-16T18:34:16.851Z,101924.39
2023-04-16T18:36:46.028Z,101932.80
2023-04-16T18:39:14.917Z,101932.33
2023-04-16T18:41:44.012Z,101934.10
2023-04-16T18:44:12.896Z,101932.39
2023-04-16T18:46:41.521Z,101931.73
2023-04-16T18:49:11.160Z,101929.54
2023-04-16T18:51:42.241Z,101927.13
2023-04-16T18:54:10.813Z,101928.36
2023-04-16T18:56:39.191Z,101926.45
2023-04-16T18:59:07.677Z,101922.44
2023-04-16T19:01:36.179Z,101929.96
2023-04-16T19:04:04.772Z,101924.06
2023-04-16T19:06:33.634Z,101925.85
2023-04-16T19:09:02.105Z,101921.52
2023-04-16T19:11:31.001Z,101922.17
2023-04-16T19:14:02.401Z,101916.08
2023-04-16T19:16:32.711Z,101907.68
2023-04-16T19:19:01.152Z,101906.88
2023-04-16T19:21:29.845Z,101897.50
2023-04-16T19:23:58.636Z,101897.00
2023-04-16T19:26:27.310Z,101895.64
2023-04-16T19:28:56.113Z,101889.21
2023-04-16T19:31:26.276Z,101887.11
2023-04-16T19:33:54.513Z,101884.52
2023-04-16T19:36:22.768Z,101885.12
2023-04-16T19:38:51.567Z,101882.80
2023-04-16T19:41:20.138Z,101884.79
2023-04-16T19:43:48.516Z,101878.74
2023-04-16T19:46:16.952Z,101885.42
2023-04-16T19:48:47.548Z,101888.55
2023-04-16T19:51:16.012Z,101879.13
2023-04-16T19:53:46.945Z,101886.63
2023-04-16T19:56:16.350Z,101882.27
2023-04-16T19:58:45.134Z,101877.39
2023-04-16T20:01:13.443Z,101875.15
2023-04-16T20:03:42.014Z,101875.17
2023-04-16T20:06:10.488Z,101871.33
2023-04-16T20:08:42.641Z,101862.80
2023-04-16T20:11:12.452Z,101859.89
2023-04-16T20:13:41.136Z,101855.42
2023-04-16T20:16:09.716Z,101857.71
2023-04-16T20:18:41.651Z,101853.89
2023-04-16T20:21:10.278Z,101850.75
2023-04-16T20:23:38.639Z,101854.64
2023-04-16T20:26:07.253Z,101853.77
2023-04-16T20:28:36.520Z,101854.80
2023-04-16T20:31:05.024Z,101859.52
2023-04-16T20:33:34.106Z,101855.36
2023-04-16T20:36:02.602Z,101852.05
2023-04-16T20:38:32.605Z,101852.25
2023-04-16T20:41:12.644Z,101851.37
2023-04-16T20:43:42.327Z,101849.46
2023-04-16T20:46:11.450Z,101840.91
2023-04-16T20:48:39.826Z,101839.53
2023-04-16T20:51:09.815Z,101838.88
2023-04-16T20:53:38.652Z,101839.29
2023-04-16T20:56:09.232Z,101837.59
2023-04-16T20:58:40.104Z,101838.88
2023-04-16T21:01:08.634Z,101839.08
2023-04-16T21:03:37.588Z,101844.83
2023-04-16T21:06:06.371Z,101846.93
2023-04-16T21:08:35.567Z,101843.06
2023-04-16T21:11:04.452Z,101846.89
2023-04-16T21:13:33.647Z,101843.73
2023-04-16T21:16:05.196Z,101843.02
2023-04-16T21:18:33.581Z,101845.13
2023-04-16T21:21:04.529Z,101843.88
2023-04-16T21:23:33.129Z,101845.48
2023-04-16T21:26:01.490Z,101843.53
2023-04-16T21:28:29.957Z,101845.98
2023-04-16T21:30:58.348Z,101840.71
2023-04-16T21:33:27.032Z,101839.13
2023-04-16T21:35:55.709Z,101834.05
2023-04-16T21:38:24.085Z,101827.75
2023-04-16T21:40:56.049Z,101826.19
2023-04-16T21:43:24.838Z,101826.35
2023-04-16T21:45:53.936Z,101820.06
2023-04-16T21:48:22.516Z,101813.76
2023-04-16T21:51:06.738Z,101800.83
2023-04-16T21:53:35.552Z,101795.49
2023-04-16T21:56:04.130Z,101790.29
2023-04-16T21:58:32.411Z,101792.05
2023-04-16T22:01:01.773Z,101790.65
2023-04-16T22:03:31.393Z,101787.70
2023-04-16T22:06:01.850Z,101785.95
2023-04-16T22:08:31.662Z,101782.10
2023-04-16T22:11:01.906Z,101783.02
2023-04-16T22:13:36.732Z,101786.35
2023-04-16T22:16:05.854Z,101788.30
2023-04-16T22:18:34.309Z,101785.12
2023-04-16T22:21:03.180Z,101781.98
2023-04-16T22:23:31.655Z,101779.70
2023-04-16T22:26:00.545Z,101780.93
2023-04-16T22:28:28.821Z,101788.26
2023-04-16T22:30:57.620Z,101788.11
2023-04-16T22:33:28.755Z,101781.11
2023-04-16T22:35:57.332Z,101787.03
2023-04-16T22:38:26.126Z,101780.80
2023-04-16T22:40:54.524Z,101782.76
2023-04-16T22:43:23.211Z,101785.02
2023-04-16T22:49:15.241Z,101775.11
2023-04-16T22:51:43.745Z,101773.66
2023-04-16T22:54:13.794Z,101767.55
2023-04-16T22:56:43.346Z,101765.11
2023-04-16T22:59:11.819Z,101758.14
2023-04-16T23:01:42.389Z,101760.24
2023-04-16T23:04:11.376Z,101753.83
2023-04-16T23:06:41.158Z,101759.07
2023-04-16T23:09:10.347Z,101757.70
2023-04-16T23:11:39.035Z,101749.19
2023-04-16T23:17:31.011Z,101758.05
2023-04-16T23:19:59.365Z,101757.09
2023-04-16T23:22:28.251Z,101760.77
2023-04-16T23:24:56.754Z,101754.48
2023-04-16T23:27:25.130Z,101756.92
2023-04-16T23:29:53.779Z,101757.08
2023-04-16T23:32:21.947Z,101755.16
2023-04-16T23:34:50.556Z,101758.15
2023-04-16T23:37:19.031Z,101762.85
2023-04-16T23:39:47.618Z,101764.42
2023-04-16T23:42:16.713Z,101767.00
2023-04-16T23:44:44.986Z,101759.52
2023-04-16T23:47:13.578Z,101756.52
2023-04-16T23:49:42.061Z,101753.05
2023-04-16T23:52:10.737Z,101752.03
2023-04-16T23:54:39.734Z,101752.07
2023-04-16T23:57:08.009Z,101751.56
2023-04-16T23:59:36.493Z,101753.02
